createdAt,value
2017-04-16T00:01:46.868Z,956.13
2017-04-16T00:03:59.335Z,956.16
2017-04-16T00:06:11.821Z,956.17
2017-04-16T00:08:24.236Z,956.25
2017-04-16T00:10:36.529Z,956.22
2017-04-16T00:12:43.782Z,956.23
2017-04-16T00:14:46.039Z,956.25
2017-04-16T00:16:58.367Z,956.21
2017-04-16T00:19:10.998Z,956.16
2017-04-16T00:21:23.552Z,956.07
2017-04-16T00:23:35.879Z,956.1
2017-04-16T00:25:43.205Z,956.06
2017-04-16T00:27:55.544Z,956.03
2017-04-16T00:30:07.933Z,956.01
2017-04-16T00:32:20.412Z,956.09
2017-04-16T00:34:32.822Z,956.1
2017-04-16T00:36:40.106Z,956.12
2017-04-16T00:38:52.465Z,956.11
2017-04-16T00:41:04.914Z,956.06
2017-04-16T00:43:12.215Z,956.04
2017-04-16T00:45:24.477Z,956.03
2017-04-16T00:47:36.702Z,955.98
2017-04-16T00:49:39.102Z,956.05
2017-04-16T00:51:51.384Z,955.94
2017-04-16T00:54:04.299Z,955.94
2017-04-16T00:56:16.773Z,955.9
2017-04-16T00:58:29.075Z,955.88
2017-04-16T01:00:41.443Z,955.84
2017-04-16T01:02:48.728Z,955.86
2017-04-16T01:05:01.039Z,955.82
2017-04-16T01:07:13.657Z,955.94
2017-04-16T01:09:21.073Z,955.83
2017-04-16T01:11:33.539Z,955.84
2017-04-16T01:13:40.943Z,955.92
2017-04-16T01:15:53.121Z,955.9
2017-04-16T01:18:05.460Z,955.89
2017-04-16T01:20:17.782Z,955.91
2017-04-16T01:22:30.202Z,956.01
2017-04-16T01:24:42.537Z,955.92
2017-04-16T01:26:55.169Z,955.89
2017-04-16T01:29:07.610Z,955.91
2017-04-16T01:31:19.904Z,955.97
2017-04-16T01:33:32.212Z,955.99
2017-04-16T01:35:39.485Z,956.02
2017-04-16T01:37:46.775Z,956.05
2017-04-16T01:39:54.223Z,956
2017-04-16T01:42:06.549Z,956.03
2017-04-16T01:44:18.868Z,956.03
2017-04-16T01:46:31.174Z,956.02
2017-04-16T01:48:43.525Z,956.01
2017-04-16T01:50:56.134Z,956.06
2017-04-16T01:53:08.468Z,956
2017-04-16T01:55:20.960Z,956.03
2017-04-16T01:57:33.142Z,956
2017-04-16T01:59:45.715Z,955.9
2017-04-16T02:01:58.322Z,956.03
2017-04-16T02:04:10.671Z,956.04
2017-04-16T02:06:22.990Z,956.06
2017-04-16T02:08:35.342Z,956.02
2017-04-16T02:10:47.605Z,956.1
2017-04-16T02:12:59.981Z,956.09
2017-04-16T02:15:07.411Z,956.07
2017-04-16T02:17:19.723Z,956.06
2017-04-16T02:19:31.939Z,955.97
2017-04-16T02:21:39.240Z,956
2017-04-16T02:23:49.856Z,956.05
2017-04-16T02:26:02.085Z,956.05
2017-04-16T02:28:14.402Z,956.12
2017-04-16T02:30:26.663Z,956.2
2017-04-16T02:32:38.832Z,956.2
2017-04-16T02:34:51.445Z,956.24
2017-04-16T02:37:03.769Z,956.24
2017-04-16T02:39:16.115Z,956.23
2017-04-16T02:41:28.330Z,956.23
2017-04-16T02:43:40.700Z,956.25
2017-04-16T02:45:48.354Z,956.28
2017-04-16T02:48:00.758Z,956.29
2017-04-16T02:50:13.142Z,956.36
2017-04-16T02:52:25.355Z,956.32
2017-04-16T02:54:37.630Z,956.36
2017-04-16T02:56:50.262Z,956.28
2017-04-16T02:59:02.461Z,956.3
2017-04-16T03:01:14.627Z,956.36
2017-04-16T03:03:26.818Z,956.36
2017-04-16T03:05:39.295Z,956.39
2017-04-16T03:07:52.029Z,956.34
2017-04-16T03:10:04.852Z,956.41
2017-04-16T03:12:17.214Z,956.46
2017-04-16T03:14:29.419Z,956.45
2017-04-16T03:16:41.694Z,956.42
2017-04-16T03:18:48.979Z,956.42
2017-04-16T03:21:01.270Z,956.42
2017-04-16T03:23:13.579Z,956.4
2017-04-16T03:25:25.898Z,956.36
2017-04-16T03:27:38.209Z,956.35
2017-04-16T03:29:45.577Z,956.39
2017-04-16T03:31:57.997Z,956.39
2017-04-16T03:34:10.668Z,956.42
2017-04-16T03:36:22.924Z,956.47
2017-04-16T03:38:35.209Z,956.5
2017-04-16T03:40:45.874Z,956.47
2017-04-16T03:42:58.704Z,956.46
2017-04-16T03:45:06.360Z,956.55
2017-04-16T03:47:13.585Z,956.54
2017-04-16T03:49:25.789Z,956.56
2017-04-16T03:51:38.081Z,956.62
2017-04-16T03:53:51.322Z,956.63
2017-04-16T03:56:03.871Z,956.59
2017-04-16T03:58:16.136Z,956.64
2017-04-16T04:00:28.348Z,956.64
2017-04-16T04:02:35.682Z,956.61
2017-04-16T04:04:48.047Z,956.57
2017-04-16T04:07:00.317Z,956.53
2017-04-16T04:09:12.563Z,956.58
2017-04-16T04:11:19.857Z,956.73
2017-04-16T04:13:32.072Z,956.62
2017-04-16T04:15:44.290Z,956.59
2017-04-16T04:17:56.911Z,956.69
2017-04-16T04:20:04.842Z,956.75
2017-04-16T04:22:12.099Z,956.79
2017-04-16T04:24:24.399Z,956.76
2017-04-16T04:26:36.663Z,956.79
2017-04-16T04:28:50.085Z,956.78
2017-04-16T04:31:02.428Z,956.81
2017-04-16T04:33:14.825Z,956.79
2017-04-16T04:35:27.180Z,956.84
2017-04-16T04:37:39.470Z,956.84
2017-04-16T04:39:51.892Z,956.86
2017-04-16T04:42:04.142Z,956.91
2017-04-16T04:44:16.438Z,956.89
2017-04-16T04:46:28.642Z,956.96
2017-04-16T04:48:40.944Z,956.96
2017-04-16T04:50:53.372Z,957.02
2017-04-16T04:53:06.139Z,957
2017-04-16T04:55:18.956Z,956.96
2017-04-16T04:57:31.214Z,956.97
2017-04-16T04:59:43.417Z,956.87
2017-04-16T05:01:55.609Z,956.92
2017-04-16T05:04:07.927Z,956.88
2017-04-16T05:06:20.202Z,956.87
2017-04-16T05:08:32.493Z,956.87
2017-04-16T05:10:48.760Z,956.86
2017-04-16T05:12:51.301Z,956.84
2017-04-16T05:15:03.658Z,956.84
2017-04-16T05:17:19.359Z,956.82
2017-04-16T05:19:31.649Z,956.85
2017-04-16T05:21:44.143Z,956.89
2017-04-16T05:23:57.415Z,956.92
2017-04-16T05:26:09.761Z,957.04
2017-04-16T05:28:22.725Z,957.04
2017-04-16T05:30:30.449Z,957.15
2017-04-16T05:32:42.721Z,957.23
2017-04-16T05:34:55.030Z,957.27
2017-04-16T05:37:07.282Z,957.34
2017-04-16T05:39:19.565Z,957.37
2017-04-16T05:41:31.926Z,957.34
2017-04-16T05:43:44.185Z,957.37
2017-04-16T05:45:51.466Z,957.36
2017-04-16T05:48:09.810Z,957.32
2017-04-16T05:50:17.329Z,957.29
2017-04-16T05:52:29.722Z,957.3
2017-04-16T05:54:37.019Z,957.38
2017-04-16T05:56:49.326Z,957.34
2017-04-16T05:59:01.485Z,957.38
2017-04-16T06:01:13.987Z,957.35
2017-04-16T06:03:26.594Z,957.4
2017-04-16T06:05:39.220Z,957.41
2017-04-16T06:07:51.485Z,957.45
2017-04-16T06:10:02.072Z,957.43
2017-04-16T06:12:14.414Z,957.49
2017-04-16T06:14:26.795Z,957.49
2017-04-16T06:16:39.052Z,957.42
2017-04-16T06:18:46.437Z,957.41
2017-04-16T06:20:53.750Z,957.46
2017-04-16T06:23:06.044Z,957.46
2017-04-16T06:25:18.372Z,957.47
2017-04-16T06:27:30.569Z,957.42
2017-04-16T06:29:42.997Z,957.38
2017-04-16T06:31:55.340Z,957.4
2017-04-16T06:34:07.571Z,957.36
2017-04-16T06:36:20.199Z,957.36
2017-04-16T06:38:27.655Z,957.48
2017-04-16T06:40:40.430Z,957.46
2017-04-16T06:42:52.834Z,957.36
2017-04-16T06:45:05.112Z,957.37
2017-04-16T06:47:17.454Z,957.32
2017-04-16T06:49:24.841Z,957.3
2017-04-16T06:51:37.154Z,957.31
2017-04-16T06:53:44.403Z,957.29
2017-04-16T06:55:56.698Z,957.27
2017-04-16T06:58:08.987Z,957.34
2017-04-16T07:00:21.406Z,957.39
2017-04-16T07:02:33.761Z,957.34
2017-04-16T07:04:46.035Z,957.36
2017-04-16T07:06:58.320Z,957.37
2017-04-16T07:09:10.566Z,957.38
2017-04-16T07:11:22.809Z,957.36
2017-04-16T07:13:30.422Z,957.33
2017-04-16T07:15:42.806Z,957.37
2017-04-16T07:17:55.161Z,957.34
2017-04-16T07:20:07.457Z,957.38
2017-04-16T07:22:19.781Z,957.35
2017-04-16T07:24:32.149Z,957.38
2017-04-16T07:26:44.428Z,957.37
2017-04-16T07:28:56.663Z,957.36
2017-04-16T07:31:09.053Z,957.32
2017-04-16T07:33:21.302Z,957.27
2017-04-16T07:35:33.633Z,957.23
2017-04-16T07:37:46.002Z,957.23
2017-04-16T07:39:58.205Z,957.22
2017-04-16T07:42:05.502Z,957.28
2017-04-16T07:44:17.755Z,957.25
2017-04-16T07:46:20.126Z,957.27
2017-04-16T07:48:32.419Z,957.29
2017-04-16T07:50:44.885Z,957.22
2017-04-16T07:52:52.301Z,957.21
2017-04-16T07:55:04.795Z,957.21
2017-04-16T07:57:17.079Z,957.29
2017-04-16T07:59:29.355Z,957.2
2017-04-16T08:01:41.677Z,957.23
2017-04-16T08:03:53.951Z,957.26
2017-04-16T08:06:06.157Z,957.33
2017-04-16T08:08:18.573Z,957.38
2017-04-16T08:10:30.805Z,957.38
2017-04-16T08:12:43.017Z,957.38
2017-04-16T08:14:55.464Z,957.39
2017-04-16T08:17:07.618Z,957.44
2017-04-16T08:19:10.010Z,957.45
2017-04-16T08:21:22.249Z,957.47
2017-04-16T08:23:34.574Z,957.54
2017-04-16T08:25:41.828Z,957.52
2017-04-16T08:27:54.030Z,957.61
2017-04-16T08:30:06.751Z,957.6
2017-04-16T08:32:19.037Z,957.58
2017-04-16T08:34:31.471Z,957.63
2017-04-16T08:36:38.803Z,957.58
2017-04-16T08:38:51.176Z,957.64
2017-04-16T08:41:03.495Z,957.69
2017-04-16T08:43:15.808Z,957.69
2017-04-16T08:45:23.185Z,957.65
2017-04-16T08:47:35.447Z,957.64
2017-04-16T08:49:42.752Z,957.58
2017-04-16T08:51:55.037Z,957.65
2017-04-16T08:54:07.248Z,957.64
2017-04-16T08:56:19.522Z,957.77
2017-04-16T08:58:31.920Z,957.7
2017-04-16T09:00:44.265Z,957.72
2017-04-16T09:02:56.639Z,957.71
2017-04-16T09:05:08.935Z,957.78
2017-04-16T09:07:21.235Z,957.88
2017-04-16T09:09:33.728Z,957.85
2017-04-16T09:11:46.057Z,957.89
2017-04-16T09:13:53.549Z,957.85
2017-04-16T09:16:05.854Z,957.91
2017-04-16T09:18:18.136Z,957.89
2017-04-16T09:20:30.346Z,957.89
2017-04-16T09:22:42.567Z,957.9
2017-04-16T09:24:49.894Z,957.92
2017-04-16T09:27:02.228Z,957.93
2017-04-16T09:29:14.527Z,957.94
2017-04-16T09:31:26.818Z,957.96
2017-04-16T09:33:39.050Z,957.83
2017-04-16T09:35:51.355Z,957.83
2017-04-16T09:38:03.584Z,957.84
2017-04-16T09:40:15.917Z,957.78
2017-04-16T09:42:28.278Z,957.89
2017-04-16T09:44:40.743Z,957.86
2017-04-16T09:46:53.103Z,957.89
2017-04-16T09:49:05.614Z,957.94
2017-04-16T09:51:17.874Z,957.95
2017-04-16T09:53:30.423Z,957.94
2017-04-16T09:55:42.683Z,957.94
2017-04-16T09:57:50.024Z,958.08
2017-04-16T10:00:02.298Z,958.02
2017-04-16T10:02:14.562Z,958.01
2017-04-16T10:04:27.104Z,957.99
2017-04-16T10:06:39.439Z,958.01
2017-04-16T10:08:46.866Z,958
2017-04-16T10:10:59.036Z,957.97
2017-04-16T10:13:11.426Z,957.96
2017-04-16T10:15:23.776Z,957.8
2017-04-16T10:17:36.124Z,957.76
2017-04-16T10:19:48.359Z,957.71
2017-04-16T10:22:00.556Z,957.6
2017-04-16T10:24:12.957Z,957.63
2017-04-16T10:26:25.252Z,957.55
2017-04-16T10:28:37.802Z,957.48
2017-04-16T10:30:50.002Z,957.52
2017-04-16T10:32:55.656Z,957.42
2017-04-16T10:35:07.860Z,957.43
2017-04-16T10:37:15.261Z,957.48
2017-04-16T10:39:27.512Z,957.5
2017-04-16T10:41:39.845Z,957.54
2017-04-16T10:43:52.191Z,957.56
2017-04-16T10:46:04.538Z,957.58
2017-04-16T10:48:11.824Z,957.57
2017-04-16T10:50:24.064Z,957.56
2017-04-16T10:52:36.423Z,957.55
2017-04-16T10:54:43.830Z,957.48
2017-04-16T10:56:56.078Z,957.57
2017-04-16T10:59:08.422Z,957.58
2017-04-16T11:01:20.669Z,957.68
2017-04-16T11:03:33.026Z,957.71
2017-04-16T11:05:45.527Z,957.71
2017-04-16T11:07:58.266Z,957.71
2017-04-16T11:10:10.557Z,957.72
2017-04-16T11:12:22.987Z,957.7
2017-04-16T11:14:30.387Z,957.59
2017-04-16T11:16:42.621Z,957.56
2017-04-16T11:18:54.950Z,957.56
2017-04-16T11:21:02.324Z,957.65
2017-04-16T11:23:14.617Z,957.55
2017-04-16T11:25:26.951Z,957.6
2017-04-16T11:27:34.207Z,957.55
2017-04-16T11:29:46.594Z,957.57
2017-04-16T11:31:58.905Z,957.56
2017-04-16T11:34:11.138Z,957.46
2017-04-16T11:36:23.438Z,957.39
2017-04-16T11:38:35.639Z,957.33
2017-04-16T11:40:48.112Z,957.34
2017-04-16T11:43:00.444Z,957.42
2017-04-16T11:45:07.790Z,957.46
2017-04-16T11:47:20.181Z,957.41
2017-04-16T11:49:27.583Z,957.37
2017-04-16T11:51:39.863Z,957.37
2017-04-16T11:53:47.311Z,957.33
2017-04-16T11:55:59.635Z,957.28
2017-04-16T11:58:07.044Z,957.26
2017-04-16T12:00:19.690Z,957.24
2017-04-16T12:02:32.020Z,957.26
2017-04-16T12:04:44.285Z,957.24
2017-04-16T12:06:56.656Z,957.28
2017-04-16T12:09:08.928Z,957.2
2017-04-16T12:11:21.209Z,957.26
2017-04-16T12:13:33.533Z,957.28
2017-04-16T12:15:40.812Z,957.31
2017-04-16T12:17:53.118Z,957.31
2017-04-16T12:20:00.993Z,957.32
2017-04-16T12:22:13.357Z,957.4
2017-04-16T12:24:20.651Z,957.41
2017-04-16T12:26:33.103Z,957.38
2017-04-16T12:28:45.435Z,957.34
2017-04-16T12:30:52.782Z,957.35
2017-04-16T12:33:05.217Z,957.36
2017-04-16T12:35:17.579Z,957.34
2017-04-16T12:37:24.863Z,957.33
2017-04-16T12:39:27.338Z,957.33
2017-04-16T12:41:39.858Z,957.32
2017-04-16T12:43:52.144Z,957.35
2017-04-16T12:46:04.452Z,957.31
2017-04-16T12:48:16.975Z,957.32
2017-04-16T12:50:29.366Z,957.31
2017-04-16T12:52:41.650Z,957.28
2017-04-16T12:54:53.899Z,957.26
2017-04-16T12:57:06.269Z,957.24
2017-04-16T12:59:18.614Z,957.21
2017-04-16T13:01:30.851Z,957.26
2017-04-16T13:03:43.209Z,957.27
2017-04-16T13:05:50.732Z,957.32
2017-04-16T13:08:03.112Z,957.21
2017-04-16T13:10:15.479Z,957.24
2017-04-16T13:12:27.885Z,957.22
2017-04-16T13:14:35.318Z,957.16
2017-04-16T13:16:47.630Z,957.12
2017-04-16T13:18:59.977Z,957.14
2017-04-16T13:21:12.249Z,957.09
2017-04-16T13:23:24.598Z,957.04
2017-04-16T13:25:36.964Z,957
2017-04-16T13:27:49.248Z,957.02
2017-04-16T13:30:01.470Z,957.01
2017-04-16T13:32:08.887Z,956.97
2017-04-16T13:34:21.212Z,956.98
2017-04-16T13:36:33.689Z,956.89
2017-04-16T13:38:45.997Z,956.95
2017-04-16T13:40:58.370Z,956.89
2017-04-16T13:43:10.873Z,956.93
2017-04-16T13:45:23.187Z,956.86
2017-04-16T13:47:35.482Z,956.9
2017-04-16T13:49:42.885Z,956.86
2017-04-16T13:51:50.251Z,956.84
2017-04-16T13:54:02.621Z,956.83
2017-04-16T13:56:15.004Z,956.9
2017-04-16T13:58:27.367Z,956.87
2017-04-16T14:00:39.902Z,956.83
2017-04-16T14:02:52.287Z,956.88
2017-04-16T14:05:04.591Z,956.82
2017-04-16T14:07:16.789Z,956.81
2017-04-16T14:09:29.137Z,956.81
2017-04-16T14:11:41.369Z,956.85
2017-04-16T14:13:53.771Z,956.83
2017-04-16T14:16:06.282Z,956.83
2017-04-16T14:18:19.004Z,956.84
2017-04-16T14:20:31.577Z,956.79
2017-04-16T14:22:43.844Z,956.81
2017-04-16T14:24:56.234Z,956.77
2017-04-16T14:27:08.777Z,956.77
2017-04-16T14:29:21.055Z,956.72
2017-04-16T14:31:33.473Z,956.74
2017-04-16T14:33:45.754Z,956.7
2017-04-16T14:35:58.084Z,956.76
2017-04-16T14:38:10.431Z,956.76
2017-04-16T14:40:17.743Z,956.76
2017-04-16T14:42:30.233Z,956.77
2017-04-16T14:44:42.651Z,956.75
2017-04-16T14:46:55.046Z,956.81
2017-04-16T14:49:07.391Z,956.79
2017-04-16T14:51:19.752Z,956.81
2017-04-16T14:53:32.180Z,956.84
2017-04-16T14:55:44.575Z,956.82
2017-04-16T14:57:57.027Z,956.83
2017-04-16T15:00:09.245Z,956.9
2017-04-16T15:02:21.650Z,956.89
2017-04-16T15:04:33.982Z,956.94
2017-04-16T15:06:41.192Z,956.94
2017-04-16T15:08:53.457Z,956.98
2017-04-16T15:11:05.728Z,956.96
2017-04-16T15:13:08.062Z,956.95
2017-04-16T15:15:20.426Z,956.93
2017-04-16T15:17:32.816Z,956.93
2017-04-16T15:19:45.200Z,956.95
2017-04-16T15:21:57.489Z,956.93
2017-04-16T15:24:09.932Z,956.99
2017-04-16T15:26:22.330Z,957.01
2017-04-16T15:28:34.627Z,957.08
2017-04-16T15:30:41.890Z,957.06
2017-04-16T15:32:54.151Z,957.12
2017-04-16T15:35:01.410Z,957.12
2017-04-16T15:37:13.953Z,957.2
2017-04-16T15:39:26.369Z,957.16
2017-04-16T15:41:38.749Z,957.24
2017-04-16T15:43:51.169Z,957.27
2017-04-16T15:46:03.471Z,957.26
2017-04-16T15:48:05.809Z,957.28
2017-04-16T15:50:13.249Z,957.26
2017-04-16T15:52:25.420Z,957.29
2017-04-16T15:54:37.807Z,957.28
2017-04-16T15:56:50.092Z,957.28
2017-04-16T15:59:02.373Z,957.3
2017-04-16T16:01:09.726Z,957.29
2017-04-16T16:03:22.181Z,957.35
2017-04-16T16:05:32.843Z,957.39
2017-04-16T16:07:45.096Z,957.5
2017-04-16T16:09:52.541Z,957.45
2017-04-16T16:11:59.957Z,957.47
2017-04-16T16:14:12.224Z,957.52
2017-04-16T16:16:24.602Z,957.55
2017-04-16T16:18:31.943Z,957.58
2017-04-16T16:20:44.421Z,957.55
2017-04-16T16:22:51.703Z,957.54
2017-04-16T16:25:04.132Z,957.51
2017-04-16T16:27:16.583Z,957.59
2017-04-16T16:29:28.919Z,957.59
2017-04-16T16:31:41.307Z,957.64
2017-04-16T16:33:53.633Z,957.68
2017-04-16T16:36:06.944Z,957.66
2017-04-16T16:38:17.629Z,957.64
2017-04-16T16:40:29.842Z,957.65
2017-04-16T16:42:42.124Z,957.65
2017-04-16T16:44:54.339Z,957.7
2017-04-16T16:47:01.557Z,957.66
2017-04-16T16:49:13.965Z,957.65
2017-04-16T16:51:26.209Z,957.71
2017-04-16T16:53:33.584Z,957.71
2017-04-16T16:55:45.901Z,957.77
2017-04-16T16:57:58.309Z,957.69
2017-04-16T17:00:11.095Z,957.68
2017-04-16T17:02:18.454Z,957.78
2017-04-16T17:04:30.868Z,957.69
2017-04-16T17:06:43.192Z,957.68
2017-04-16T17:08:50.550Z,957.74
2017-04-16T17:11:02.910Z,957.73
2017-04-16T17:13:10.327Z,957.79
2017-04-16T17:15:22.574Z,957.76
2017-04-16T17:17:30.017Z,957.76
2017-04-16T17:19:42.326Z,957.76
2017-04-16T17:21:54.687Z,957.76
2017-04-16T17:24:07.067Z,957.87
2017-04-16T17:26:19.296Z,957.88
2017-04-16T17:28:31.515Z,957.86
2017-04-16T17:30:43.719Z,957.82
2017-04-16T17:32:56.229Z,957.84
2017-04-16T17:35:08.499Z,957.89
2017-04-16T17:37:16.062Z,957.94
2017-04-16T17:39:28.337Z,957.89
2017-04-16T17:41:36.704Z,957.88
2017-04-16T17:43:49.343Z,957.83
2017-04-16T17:46:01.701Z,957.86
2017-04-16T17:48:13.958Z,957.91
2017-04-16T17:50:26.777Z,957.91
2017-04-16T17:52:39.072Z,957.93
2017-04-16T17:54:51.456Z,957.92
2017-04-16T17:57:03.726Z,957.98
2017-04-16T17:59:14.356Z,957.99
2017-04-16T18:01:26.769Z,957.97
2017-04-16T18:03:39.108Z,958.02
2017-04-16T18:05:49.685Z,958.02
2017-04-16T18:08:02.532Z,957.99
2017-04-16T18:10:15.826Z,958.02
2017-04-16T18:12:28.106Z,958.04
2017-04-16T18:14:40.380Z,958.07
2017-04-16T18:16:52.735Z,958.07
2017-04-16T18:19:05.065Z,958.21
2017-04-16T18:21:17.372Z,958.22
2017-04-16T18:23:29.906Z,958.21
2017-04-16T18:25:37.271Z,958.25
2017-04-16T18:27:57.188Z,958.22
2017-04-16T18:30:11.525Z,958.3
2017-04-16T18:32:23.822Z,958.32
2017-04-16T18:34:36.374Z,958.37
2017-04-16T18:36:43.775Z,958.37
2017-04-16T18:38:51.279Z,958.37
2017-04-16T18:41:03.661Z,958.42
2017-04-16T18:43:15.930Z,958.42
2017-04-16T18:45:28.183Z,958.42
2017-04-16T18:47:40.471Z,958.53
2017-04-16T18:49:52.849Z,958.53
2017-04-16T18:52:05.164Z,958.56
2017-04-16T18:54:12.600Z,958.59
2017-04-16T18:56:24.993Z,958.61
2017-04-16T18:58:37.574Z,958.67
2017-04-16T19:00:50.384Z,958.66
2017-04-16T19:03:02.654Z,958.67
2017-04-16T19:05:14.897Z,958.71
2017-04-16T19:07:27.217Z,958.68
2017-04-16T19:09:34.495Z,958.72
2017-04-16T19:11:46.995Z,958.77
2017-04-16T19:13:59.340Z,958.76
2017-04-16T19:16:11.799Z,958.75
2017-04-16T19:18:24.252Z,958.78
2017-04-16T19:20:36.963Z,958.84
2017-04-16T19:22:49.781Z,958.89
2017-04-16T19:25:02.831Z,958.81
2017-04-16T19:27:15.070Z,958.9
2017-04-16T19:29:27.427Z,958.93
2017-04-16T19:31:42.396Z,958.97
2017-04-16T19:33:57.511Z,959.02
2017-04-16T19:36:10.017Z,958.98
2017-04-16T19:38:23.162Z,958.94
2017-04-16T19:40:35.477Z,959.01
2017-04-16T19:42:47.934Z,959.01
2017-04-16T19:45:00.199Z,958.94
2017-04-16T19:47:12.503Z,958.96
2017-04-16T19:49:24.766Z,958.97
2017-04-16T19:51:37.193Z,958.95
2017-04-16T19:53:49.679Z,958.97
2017-04-16T19:56:02.075Z,958.92
2017-04-16T19:58:09.374Z,958.91
2017-04-16T20:00:21.769Z,958.95
2017-04-16T20:02:33.996Z,958.9
2017-04-16T20:04:41.401Z,958.95
2017-04-16T20:06:53.676Z,958.97
2017-04-16T20:09:06.001Z,958.97
2017-04-16T20:11:18.510Z,958.99
2017-04-16T20:13:30.931Z,958.96
2017-04-16T20:15:43.346Z,958.99
2017-04-16T20:17:55.650Z,958.98
2017-04-16T20:20:02.991Z,958.97
2017-04-16T20:22:15.438Z,958.97
2017-04-16T20:24:22.918Z,958.99
2017-04-16T20:26:35.262Z,959.04
2017-04-16T20:28:47.546Z,959.07
2017-04-16T20:30:59.873Z,959.02
2017-04-16T20:33:12.315Z,959.01
2017-04-16T20:35:24.516Z,959.07
2017-04-16T20:37:36.761Z,959.1
2017-04-16T20:39:49.356Z,959.01
2017-04-16T20:42:02.558Z,959.07
2017-04-16T20:44:09.821Z,959.09
2017-04-16T20:46:22.425Z,959.03
2017-04-16T20:48:35.116Z,959.07
2017-04-16T20:50:47.738Z,959.05
2017-04-16T20:52:55.048Z,959.07
2017-04-16T20:55:07.433Z,959.07
2017-04-16T20:57:14.752Z,959.11
2017-04-16T20:59:22.148Z,959.02
2017-04-16T21:01:29.467Z,959.06
2017-04-16T21:03:36.807Z,959.09
2017-04-16T21:05:49.066Z,959.02
2017-04-16T21:07:59.665Z,959.07
2017-04-16T21:10:07.045Z,959.09
2017-04-16T21:12:19.348Z,959.09
2017-04-16T21:14:31.549Z,959.08
2017-04-16T21:16:43.864Z,959.1
2017-04-16T21:18:51.248Z,959.16
2017-04-16T21:21:03.558Z,959.1
2017-04-16T21:23:16.094Z,959.09
2017-04-16T21:25:23.635Z,959.08
2017-04-16T21:27:36.022Z,959.05
2017-04-16T21:29:48.405Z,959.09
2017-04-16T21:32:00.707Z,959.04
2017-04-16T21:34:13.092Z,959.07
2017-04-16T21:36:25.486Z,959.08
2017-04-16T21:38:37.821Z,959.03
2017-04-16T21:40:50.139Z,959.11
2017-04-16T21:42:57.426Z,959.08
2017-04-16T21:45:09.805Z,959.06
2017-04-16T21:47:22.065Z,959.04
2017-04-16T21:49:34.359Z,959.04
2017-04-16T21:51:46.733Z,958.99
2017-04-16T21:53:58.974Z,958.98
2017-04-16T21:56:11.280Z,958.97
2017-04-16T21:58:23.912Z,958.98
2017-04-16T22:00:36.455Z,959.02
2017-04-16T22:02:48.737Z,959
2017-04-16T22:05:01.093Z,959.01
2017-04-16T22:07:13.469Z,959
2017-04-16T22:09:25.802Z,958.98
2017-04-16T22:11:39.275Z,958.97
2017-04-16T22:13:51.510Z,958.96
2017-04-16T22:16:01.951Z,958.92
2017-04-16T22:18:09.299Z,958.93
2017-04-16T22:20:21.613Z,958.87
2017-04-16T22:22:34.035Z,958.91
2017-04-16T22:24:41.375Z,958.93
2017-04-16T22:26:53.683Z,958.91
2017-04-16T22:29:06.008Z,958.89
2017-04-16T22:31:13.355Z,958.88
2017-04-16T22:33:25.785Z,958.88
2017-04-16T22:35:38.507Z,958.84
2017-04-16T22:37:45.787Z,958.89
2017-04-16T22:39:58.262Z,958.84
2017-04-16T22:42:10.508Z,958.86
2017-04-16T22:44:12.784Z,958.91
2017-04-16T22:46:25.115Z,958.87
2017-04-16T22:48:38.050Z,958.84
2017-04-16T22:50:50.260Z,958.84
2017-04-16T22:52:57.688Z,958.88
2017-04-16T22:55:05.118Z,958.88
2017-04-16T22:57:17.334Z,958.87
2017-04-16T22:59:29.656Z,958.92
2017-04-16T23:01:41.941Z,958.88
2017-04-16T23:03:54.255Z,958.93
2017-04-16T23:06:01.562Z,958.88
2017-04-16T23:08:14.272Z,958.91
2017-04-16T23:10:27.068Z,958.87
2017-04-16T23:12:39.358Z,958.87
2017-04-16T23:14:51.745Z,958.9
2017-04-16T23:16:59.037Z,958.85
2017-04-16T23:19:11.256Z,958.89
2017-04-16T23:21:23.572Z,958.88
2017-04-16T23:23:31.234Z,958.87
2017-04-16T23:25:43.579Z,958.88
2017-04-16T23:27:55.964Z,958.79
2017-04-16T23:30:03.296Z,958.78
2017-04-16T23:32:10.752Z,958.79
2017-04-16T23:34:23.120Z,958.77
2017-04-16T23:36:35.457Z,958.76
2017-04-16T23:38:47.876Z,958.67
2017-04-16T23:41:00.099Z,958.67
2017-04-16T23:43:12.462Z,958.7
2017-04-16T23:45:25.220Z,958.59
2017-04-16T23:47:37.714Z,958.59
2017-04-16T23:49:50.000Z,958.56
2017-04-16T23:52:02.204Z,958.62
2017-04-16T23:54:14.427Z,958.56
2017-04-16T23:56:26.787Z,958.52
2017-04-16T23:58:38.923Z,958.47
